Time;durP1;ratioP1;P1;durP2;ratioP2;P2;SDS_P1;SDS_P2;PMS_P1;PMS_P2;Temp;Humidity;BMP_temperature;BMP_pressure;BME280_temperature;BME280_humidity;BME280_pressure;Samples;Min_cycle;Max_cycle;Signal;HPM_P1;HPM_P2
2022/01/09 00:00:04;;;;;;;;;;;;;;;;;;1032133;28;901;-41
2022/01/09 00:00:42;;;;;;;;;;;;;;;;;;1030686;28;747;-41
2022/01/09 00:01:14;;;;;;;;;;;;;;;;;;1027591;28;1100;-41
2022/01/09 00:01:44;;;;;;;;;;;;;;;;;;1027724;28;855;-43
2022/01/09 00:02:14;;;;;;;;;;;;;;;;;;1027930;28;962;-43
2022/01/09 00:02:45;;;;;;;;;;;;;;;;;;1027812;28;887;-42
2022/01/09 00:03:15;;;;;;;;;;;;;;;;;;1027876;28;843;-42
2022/01/09 00:03:45;;;;;;;;;;;;;;;;;;1027943;28;915;-42
2022/01/09 00:04:16;;;;;;;;;;;;;;;;;;1027918;28;883;-42
2022/01/09 00:04:46;;;;;;;;;;;;;;;;;;1027911;28;820;-42
2022/01/09 00:05:17;;;;;;;;;;;;;;;;;;1027844;28;911;-41
2022/01/09 00:05:47;;;;;;;;;;;;;;;;;;1027445;28;1140;-43
2022/01/09 00:06:18;;;;;;;;;;;;;;;;;;1027374;28;894;-43
2022/01/09 00:06:48;;;;;;;;;;;;;;;;;;1027878;28;1910;-42
2022/01/09 00:07:18;;;;;;;;;;;;;;;;;;1028274;28;965;-42
2022/01/09 00:07:49;;;;;;;;;;;;;;;;;;1031834;28;910;-42
2022/01/09 00:08:19;;;;;;;;;;;;;;;;;;1031642;28;902;-42
2022/01/09 00:08:49;;;;;;;;;;;;;;;;;;1031838;28;922;-42
2022/01/09 00:09:20;;;;;;;;;;;;;;;;;;1031841;28;989;-42
2022/01/09 00:09:50;;;;;;;;;;;;;;;;;;1032038;28;859;-42
2022/01/09 00:10:20;;;;;;;;;;;;;;;;;;1031758;28;923;-42
2022/01/09 00:10:51;;;;;;;;;;;;;;;;;;1031944;28;925;-42
2022/01/09 00:11:26;;;;;;;;;;;;;;;;;;1031948;28;1636;-42
2022/01/09 00:11:57;;;;;;;;;;;;;;;;;;1031861;28;808;-42
2022/01/09 00:12:27;;;;;;;;;;;;;;;;;;1032011;28;890;-42
2022/01/09 00:12:58;;;;;;;;;;;;;;;;;;1031795;28;816;-42
2022/01/09 00:13:28;;;;;;;;;;;;;;;;;;1031998;28;954;-42
2022/01/09 00:13:59;;;;;;;;;;;;;;;;;;1031847;28;922;-42
2022/01/09 00:14:29;;;;;;;;;;;;;;;;;;1031888;28;898;-43
2022/01/09 00:14:59;;;;;;;;;;;;;;;;;;1031918;28;854;-43
2022/01/09 00:15:30;;;;;;;;;;;;;;;;;;1032023;28;945;-43
2022/01/09 00:16:00;;;;;;;;;;;;;;;;;;1031430;28;1076;-42
2022/01/09 00:16:30;;;;;;;;;;;;;;;;;;1032024;28;926;-42
2022/01/09 00:17:01;;;;;;;;;;;;;;;;;;1031787;28;992;-42
2022/01/09 00:17:32;;;;;;;;;;;;;;;;;;1032016;28;1012;-42
2022/01/09 00:18:02;;;;;;;;;;;;;;;;;;1031758;28;938;-41
2022/01/09 00:18:32;;;;;;;;;;;;;;;;;;1031837;28;910;-42
2022/01/09 00:19:03;;;;;;;;;;;;;;;;;;1031925;28;808;-42
2022/01/09 00:19:33;;;;;;;;;;;;;;;;;;1031948;28;866;-42
2022/01/09 00:20:04;;;;;;;;;;;;;;;;;;1031982;28;839;-42
2022/01/09 00:20:35;;;;;;;;;;;;;;;;;;1034254;28;1130;-42
2022/01/09 00:21:06;;;;;;;;;;;;;;;;;;1033676;28;1241;-42
2022/01/09 00:21:36;;;;;;;;;;;;;;;;;;1033173;28;1087;-42
2022/01/09 00:22:07;;;;;;;;;;;;;;;;;;1033944;28;1142;-42
2022/01/09 00:22:47;;;;;;;;;;;;;;;;;;1034366;28;1086;-42
2022/01/09 00:23:17;;;;;;;;;;;;;;;;;;1029876;28;1182;-42
2022/01/09 00:23:48;;;;;;;;;;;;;;;;;;1033877;28;1043;-43
2022/01/09 00:24:18;;;;;;;;;;;;;;;;;;1032386;28;1086;-42
2022/01/09 00:24:48;;;;;;;;;;;;;;;;;;1030777;28;1338;-42
2022/01/09 00:25:20;;;;;;;;;;;;;;;;;;1034122;28;1047;-42
2022/01/09 00:25:51;;;;;;;;;;;;;;;;;;1001409;28;5209;-42
2022/01/09 00:26:21;;;;;;;;;;;;;;;;;;1036974;28;1205;-42
2022/01/09 00:26:52;;;;;;;;;;;;;;;;;;1037225;28;1910;-42
2022/01/09 00:27:22;;;;;;;;;;;;;;;;;;1037232;28;1011;-42
2022/01/09 00:27:53;;;;;;;;;;;;;;;;;;1037149;28;1055;-42
2022/01/09 00:28:23;;;;;;;;;;;;;;;;;;1038030;28;1164;-42
2022/01/09 00:28:53;;;;;;;;;;;;;;;;;;1037826;28;1583;-43
2022/01/09 00:29:24;;;;;;;;;;;;;;;;;;1037325;28;1070;-42
2022/01/09 00:29:54;;;;;;;;;;;;;;;;;;1036816;28;1091;-42
2022/01/09 00:30:24;;;;;;;;;;;;;;;;;;1037683;28;1047;-42
2022/01/09 00:30:55;;;;;;;;;;;;;;;;;;1038523;28;1054;-42
2022/01/09 00:31:25;;;;;;;;;;;;;;;;;;1037542;28;1027;-42
2022/01/09 00:31:56;;;;;;;;;;;;;;;;;;1037130;28;1174;-42
2022/01/09 00:32:26;;;;;;;;;;;;;;;;;;1038018;28;1300;-42
2022/01/09 00:32:56;;;;;;;;;;;;;;;;;;1038386;28;1028;-42
2022/01/09 00:33:27;;;;;;;;;;;;;;;;;;1038022;28;1059;-42
2022/01/09 00:33:57;;;;;;;;;;;;;;;;;;1037183;28;1015;-42
2022/01/09 00:34:28;;;;;;;;;;;;;;;;;;1037720;28;1241;-42
2022/01/09 00:34:58;;;;;;;;;;;;;;;;;;1038446;28;1190;-42
2022/01/09 00:35:28;;;;;;;;;;;;;;;;;;1035860;28;1009;-42
2022/01/09 00:35:59;;;;;;;;;;;;;;;;;;1035957;28;898;-42
2022/01/09 00:36:30;;;;;;;;;;;;;;;;;;1031409;28;1117;-42
2022/01/09 00:37:01;;;;;;;;;;;;;;;;;;1031357;28;912;-41
2022/01/09 00:37:32;;;;;;;;;;;;;;;;;;1031677;28;791;-42
2022/01/09 00:38:02;;;;;;;;;;;;;;;;;;1031764;28;853;-43
2022/01/09 00:38:33;;;;;;;;;;;;;;;;;;1035894;28;949;-42
2022/01/09 00:39:03;;;;;;;;;;;;;;;;;;1035938;28;886;-42
2022/01/09 00:39:34;;;;;;;;;;;;;;;;;;1035769;28;1032;-43
2022/01/09 00:40:05;;;;;;;;;;;;;;;;;;1035928;28;953;-42
2022/01/09 00:40:36;;;;;;;;;;;;;;;;;;1035623;28;878;-42
2022/01/09 00:41:06;;;;;;;;;;;;;;;;;;1035865;28;976;-42
2022/01/09 00:41:36;;;;;;;;;;;;;;;;;;1035940;28;910;-42
2022/01/09 00:42:06;;;;;;;;;;;;;;;;;;1035876;28;901;-42
2022/01/09 00:42:37;;;;;;;;;;;;;;;;;;1035891;28;819;-42
2022/01/09 00:43:09;;;;;;;;;;;;;;;;;;1035773;28;914;-42
2022/01/09 00:43:39;;;;;;;;;;;;;;;;;;1035815;28;1028;-42
2022/01/09 00:44:10;;;;;;;;;;;;;;;;;;1035982;28;953;-42
2022/01/09 00:44:40;;;;;;;;;;;;;;;;;;1035742;28;981;-42
2022/01/09 00:45:11;;;;;;;;;;;;;;;;;;1035892;28;930;-42
2022/01/09 00:45:41;;;;;;;;;;;;;;;;;;1035896;28;831;-42
2022/01/09 00:46:12;;;;;;;;;;;;;;;;;;1035699;28;878;-42
2022/01/09 00:46:42;;;;;;;;;;;;;;;;;;1035901;28;1976;-43
2022/01/09 00:47:12;;;;;;;;;;;;;;;;;;1035693;28;988;-43
2022/01/09 00:47:43;;;;;;;;;;;;;;;;;;1036023;28;905;-42
2022/01/09 00:48:13;;;;;;;;;;;;;;;;;;1035902;28;882;-42
2022/01/09 00:48:44;;;;;;;;;;;;;;;;;;1035727;28;1169;-42
2022/01/09 00:49:14;;;;;;;;;;;;;;;;;;1035796;28;838;-42
2022/01/09 00:49:44;;;;;;;;;;;;;;;;;;1035920;28;937;-42
2022/01/09 00:50:15;;;;;;;;;;;;;;;;;;1035745;28;811;-42
2022/01/09 00:50:45;;;;;;;;;;;;;;;;;;1035887;28;822;-42
2022/01/09 00:51:16;;;;;;;;;;;;;;;;;;1035759;28;961;-42
2022/01/09 00:51:46;;;;;;;;;;;;;;;;;;1035984;28;918;-42
2022/01/09 00:52:16;;;;;;;;;;;;;;;;;;1035795;28;778;-42
2022/01/09 00:52:47;;;;;;;;;;;;;;;;;;1035825;28;905;-42
2022/01/09 00:53:17;;;;;;;;;;;;;;;;;;1035909;28;949;-42
2022/01/09 00:53:47;;;;;;;;;;;;;;;;;;1035785;28;945;-42
2022/01/09 00:54:17;;;;;;;;;;;;;;;;;;1035851;28;952;-42
2022/01/09 00:54:48;;;;;;;;;;;;;;;;;;1035842;28;981;-42
2022/01/09 00:55:18;;;;;;;;;;;;;;;;;;1035771;28;949;-42
2022/01/09 00:55:48;;;;;;;;;;;;;;;;;;1035939;28;819;-42
2022/01/09 00:56:19;;;;;;;;;;;;;;;;;;1035936;28;807;-42
2022/01/09 00:56:49;;;;;;;;;;;;;;;;;;1035665;28;1103;-42
2022/01/09 00:57:19;;;;;;;;;;;;;;;;;;1035870;28;910;-43
2022/01/09 00:57:49;;;;;;;;;;;;;;;;;;1035800;28;874;-42
2022/01/09 00:58:20;;;;;;;;;;;;;;;;;;1035873;28;815;-42
2022/01/09 00:58:50;;;;;;;;;;;;;;;;;;1035804;28;957;-42
2022/01/09 00:59:20;;;;;;;;;;;;;;;;;;1035785;28;949;-42
2022/01/09 00:59:51;;;;;;;;;;;;;;;;;;1035809;28;920;-42
2022/01/09 01:00:21;;;;;;;;;;;;;;;;;;1035813;28;826;-42
2022/01/09 01:00:53;;;;;;;;;;;;;;;;;;1035555;28;991;-42
2022/01/09 01:01:23;;;;;;;;;;;;;;;;;;1035946;28;847;-42
2022/01/09 01:01:53;;;;;;;;;;;;;;;;;;1035180;28;1264;-42
2022/01/09 01:02:24;;;;;;;;;;;;;;;;;;1035582;28;890;-42
2022/01/09 01:02:54;;;;;;;;;;;;;;;;;;1035346;28;1051;-42
2022/01/09 01:03:25;;;;;;;;;;;;;;;;;;1035552;28;965;-43
2022/01/09 01:03:55;;;;;;;;;;;;;;;;;;1035667;28;961;-42
2022/01/09 01:04:25;;;;;;;;;;;;;;;;;;1035685;28;874;-42
2022/01/09 01:04:56;;;;;;;;;;;;;;;;;;1035757;28;886;-42
2022/01/09 01:05:26;;;;;;;;;;;;;;;;;;1036006;28;906;-43
2022/01/09 01:05:56;;;;;;;;;;;;;;;;;;1035575;28;949;-42
2022/01/09 01:06:27;;;;;;;;;;;;;;;;;;1035807;28;1975;-42
2022/01/09 01:06:57;;;;;;;;;;;;;;;;;;1035757;28;842;-42
2022/01/09 01:07:28;;;;;;;;;;;;;;;;;;1035834;28;1013;-42
2022/01/09 01:07:58;;;;;;;;;;;;;;;;;;1035806;28;815;-42
2022/01/09 01:08:29;;;;;;;;;;;;;;;;;;1035626;28;925;-42
2022/01/09 01:08:59;;;;;;;;;;;;;;;;;;1035718;28;989;-43
2022/01/09 01:09:31;;;;;;;;;;;;;;;;;;1035884;28;921;-42
2022/01/09 01:10:01;;;;;;;;;;;;;;;;;;1035676;28;929;-42
2022/01/09 01:10:32;;;;;;;;;;;;;;;;;;1035556;28;937;-42
2022/01/09 01:11:02;;;;;;;;;;;;;;;;;;1035753;28;839;-42
2022/01/09 01:11:32;;;;;;;;;;;;;;;;;;1035875;28;804;-42
2022/01/09 01:12:03;;;;;;;;;;;;;;;;;;1035845;28;827;-42
2022/01/09 01:12:33;;;;;;;;;;;;;;;;;;1035581;28;862;-42
2022/01/09 01:13:04;;;;;;;;;;;;;;;;;;1035833;28;1017;-42
2022/01/09 01:13:34;;;;;;;;;;;;;;;;;;1035653;28;926;-42
2022/01/09 01:14:05;;;;;;;;;;;;;;;;;;1035818;28;957;-42
2022/01/09 01:14:35;;;;;;;;;;;;;;;;;;1035739;28;827;-42
2022/01/09 01:15:05;;;;;;;;;;;;;;;;;;1035687;28;791;-40
2022/01/09 01:15:36;;;;;;;;;;;;;;;;;;1035862;28;847;-42
2022/01/09 01:16:06;;;;;;;;;;;;;;;;;;1035805;28;977;-42
2022/01/09 01:16:37;;;;;;;;;;;;;;;;;;1035594;28;843;-42
2022/01/09 01:17:09;;;;;;;;;;;;;;;;;;1035598;28;961;-42
2022/01/09 01:17:40;;;;;;;;;;;;;;;;;;1035740;28;1000;-42
2022/01/09 01:18:10;;;;;;;;;;;;;;;;;;1035810;28;906;-42
2022/01/09 01:18:43;;;;;;;;;;;;;;;;;;1035711;28;815;-43
2022/01/09 01:19:14;;;;;;;;;;;;;;;;;;1035647;28;882;-42
2022/01/09 01:19:44;;;;;;;;;;;;;;;;;;1035832;28;949;-42
2022/01/09 01:20:20;;;;;;;;;;;;;;;;;;1035529;28;842;-42
2022/01/09 01:20:50;;;;;;;;;;;;;;;;;;1035750;28;870;-42
2022/01/09 01:21:23;;;;;;;;;;;;;;;;;;1035679;28;878;-42
2022/01/09 01:21:53;;;;;;;;;;;;;;;;;;1035755;28;791;-42
2022/01/09 01:22:24;;;;;;;;;;;;;;;;;;1035694;28;903;-42
2022/01/09 01:22:57;;;;;;;;;;;;;;;;;;1035546;28;863;-42
2022/01/09 01:23:28;;;;;;;;;;;;;;;;;;1035764;28;914;-43
2022/01/09 01:23:58;;;;;;;;;;;;;;;;;;1035728;28;1359;-42
2022/01/09 01:24:29;;;;;;;;;;;;;;;;;;1035526;28;929;-42
2022/01/09 01:25:00;;;;;;;;;;;;;;;;;;1033101;28;1154;-42
2022/01/09 01:25:30;;;;;;;;;;;;;;;;;;1031733;28;930;-42
2022/01/09 01:26:02;;;;;;;;;;;;;;;;;;1031634;28;946;-42
2022/01/09 01:26:32;;;;;;;;;;;;;;;;;;1031616;28;1985;-42
2022/01/09 01:27:03;;;;;;;;;;;;;;;;;;1031593;28;886;-42
2022/01/09 01:27:33;;;;;;;;;;;;;;;;;;1031720;28;1624;-43
2022/01/09 01:28:03;;;;;;;;;;;;;;;;;;1031654;28;866;-42
2022/01/09 01:28:34;;;;;;;;;;;;;;;;;;1031606;28;930;-42
2022/01/09 01:29:04;;;;;;;;;;;;;;;;;;1031772;28;953;-43
2022/01/09 01:29:35;;;;;;;;;;;;;;;;;;1031539;28;1631;-42
2022/01/09 01:30:08;;;;;;;;;;;;;;;;;;1031677;28;1005;-42
2022/01/09 01:30:38;;;;;;;;;;;;;;;;;;1031475;28;993;-42
2022/01/09 01:31:09;;;;;;;;;;;;;;;;;;1031618;28;1134;-42
2022/01/09 01:31:40;;;;;;;;;;;;;;;;;;1031673;28;934;-42
2022/01/09 01:32:10;;;;;;;;;;;;;;;;;;1031510;28;1253;-42
2022/01/09 01:32:41;;;;;;;;;;;;;;;;;;1031586;28;890;-42
2022/01/09 01:33:11;;;;;;;;;;;;;;;;;;1031634;28;989;-42
2022/01/09 01:33:42;;;;;;;;;;;;;;;;;;1031672;28;831;-42
2022/01/09 01:34:25;;;;;;;;;;;;;;;;;;1031454;28;1013;-42
2022/01/09 01:34:55;;;;;;;;;;;;;;;;;;1031540;28;1200;-42
2022/01/09 01:35:26;;;;;;;;;;;;;;;;;;1031610;28;1615;-43
2022/01/09 01:35:56;;;;;;;;;;;;;;;;;;1031624;28;818;-43
2022/01/09 01:36:26;;;;;;;;;;;;;;;;;;1031300;28;1008;-42
2022/01/09 01:37:19;;;;;;;;;;;;;;;;;;1031671;28;862;-42
2022/01/09 01:37:49;;;;;;;;;;;;;;;;;;1031315;28;1131;-42
2022/01/09 01:38:19;;;;;;;;;;;;;;;;;;1031477;28;849;-42
2022/01/09 01:38:50;;;;;;;;;;;;;;;;;;1031641;28;886;-42
2022/01/09 01:40:37;;;;;;;;;;;;;;;;;;1031231;28;811;-42
2022/01/09 01:41:07;;;;;;;;;;;;;;;;;;1031711;28;898;-42
2022/01/09 01:41:38;;;;;;;;;;;;;;;;;;1031592;28;870;-42
2022/01/09 01:42:08;;;;;;;;;;;;;;;;;;1031565;28;906;-42
2022/01/09 01:42:39;;;;;;;;;;;;;;;;;;1031624;28;949;-42
2022/01/09 01:43:10;;;;;;;;;;;;;;;;;;1031619;28;950;-42
2022/01/09 01:43:40;;;;;;;;;;;;;;;;;;1031165;28;1094;-42
2022/01/09 01:44:11;;;;;;;;;;;;;;;;;;1027661;28;926;-42
2022/01/09 01:44:46;;;;;;;;;;;;;;;;;;1027521;28;887;-42
2022/01/09 01:45:17;;;;;;;;;;;;;;;;;;1027555;28;1004;-42
2022/01/09 01:45:47;;;;;;;;;;;;;;;;;;1027641;28;859;-42
2022/01/09 01:46:18;;;;;;;;;;;;;;;;;;1027476;28;954;-42
2022/01/09 01:46:48;;;;;;;;;;;;;;;;;;1027605;28;1907;-42
2022/01/09 01:47:28;;;;;;;;;;;;;;;;;;1027323;28;898;-42
2022/01/09 01:48:05;;;;;;;;;;;;;;;;;;1027662;28;827;-42
2022/01/09 01:48:35;;;;;;;;;;;;;;;;;;1027411;28;1134;-42
2022/01/09 01:49:06;;;;;;;;;;;;;;;;;;1031794;28;870;-42
2022/01/09 01:49:36;;;;;;;;;;;;;;;;;;1031220;28;823;-42
2022/01/09 01:51:27;;;;;;;;;;;;;;;;;;1031560;28;843;-42
2022/01/09 01:51:58;;;;;;;;;;;;;;;;;;1031719;28;890;-42
2022/01/09 01:52:34;;;;;;;;;;;;;;;;;;1031437;28;965;-42
2022/01/09 01:53:08;;;;;;;;;;;;;;;;;;1031701;28;1511;-42
2022/01/09 01:53:39;;;;;;;;;;;;;;;;;;1031562;28;843;-42
2022/01/09 01:54:10;;;;;;;;;;;;;;;;;;1031690;28;945;-42
2022/01/09 01:54:42;;;;;;;;;;;;;;;;;;1031328;28;1655;-42
2022/01/09 01:55:14;;;;;;;;;;;;;;;;;;1031489;28;942;-42
2022/01/09 01:55:47;;;;;;;;;;;;;;;;;;1031782;28;899;-43
2022/01/09 01:56:19;;;;;;;;;;;;;;;;;;1031552;28;863;-42
2022/01/09 01:56:50;;;;;;;;;;;;;;;;;;1031558;28;878;-42
2022/01/09 01:57:20;;;;;;;;;;;;;;;;;;1031599;28;826;-42
2022/01/09 01:57:51;;;;;;;;;;;;;;;;;;1031595;28;966;-42
2022/01/09 01:58:22;;;;;;;;;;;;;;;;;;1031591;28;878;-42
2022/01/09 01:58:54;;;;;;;;;;;;;;;;;;1031520;28;898;-42
2022/01/09 01:59:24;;;;;;;;;;;;;;;;;;1031067;28;1117;-42
2022/01/09 01:59:55;;;;;;;;;;;;;;;;;;1031269;28;835;-42
2022/01/09 02:00:25;;;;;;;;;;;;;;;;;;1031181;28;788;-42
2022/01/09 02:00:56;;;;;;;;;;;;;;;;;;1031183;28;903;-42
2022/01/09 02:01:26;;;;;;;;;;;;;;;;;;1031637;28;993;-42
2022/01/09 02:01:58;;;;;;;;;;;;;;;;;;1031511;28;962;-43
2022/01/09 02:02:28;;;;;;;;;;;;;;;;;;1031454;28;806;-42
2022/01/09 02:02:59;;;;;;;;;;;;;;;;;;1031576;28;937;-42
2022/01/09 02:03:30;;;;;;;;;;;;;;;;;;1031501;28;958;-42
2022/01/09 02:04:00;;;;;;;;;;;;;;;;;;1031551;28;1795;-42
2022/01/09 02:04:30;;;;;;;;;;;;;;;;;;1031355;28;886;-42
2022/01/09 02:05:03;;;;;;;;;;;;;;;;;;1031520;28;881;-42
2022/01/09 02:05:34;;;;;;;;;;;;;;;;;;1031439;28;863;-43
2022/01/09 02:06:05;;;;;;;;;;;;;;;;;;1031454;28;885;-42
2022/01/09 02:06:35;;;;;;;;;;;;;;;;;;1031531;28;1906;-42
2022/01/09 02:07:07;;;;;;;;;;;;;;;;;;1031372;28;989;-42
2022/01/09 02:07:38;;;;;;;;;;;;;;;;;;1031529;28;898;-42
2022/01/09 02:08:09;;;;;;;;;;;;;;;;;;1031540;28;886;-42
2022/01/09 02:08:39;;;;;;;;;;;;;;;;;;1031381;28;894;-42
2022/01/09 02:09:10;;;;;;;;;;;;;;;;;;1031414;28;886;-42
2022/01/09 02:09:40;;;;;;;;;;;;;;;;;;1031509;28;899;-42
2022/01/09 02:10:10;;;;;;;;;;;;;;;;;;1031388;28;875;-42
2022/01/09 02:10:42;;;;;;;;;;;;;;;;;;1031487;28;823;-42
2022/01/09 02:11:12;;;;;;;;;;;;;;;;;;1031284;28;950;-42
2022/01/09 02:11:43;;;;;;;;;;;;;;;;;;1031567;28;902;-42
2022/01/09 02:12:13;;;;;;;;;;;;;;;;;;1031492;28;839;-42
2022/01/09 02:12:44;;;;;;;;;;;;;;;;;;1031497;28;803;-43
2022/01/09 02:13:17;;;;;;;;;;;;;;;;;;1031624;28;858;-42
2022/01/09 02:13:47;;;;;;;;;;;;;;;;;;1031318;28;891;-42
2022/01/09 02:14:18;;;;;;;;;;;;;;;;;;1031570;28;923;-42
2022/01/09 02:14:48;;;;;;;;;;;;;;;;;;1031423;28;870;-42
2022/01/09 02:15:26;;;;;;;;;;;;;;;;;;1031472;28;973;-42
2022/01/09 02:15:58;;;;;;;;;;;;;;;;;;1031599;28;1000;-42
2022/01/09 02:16:29;;;;;;;;;;;;;;;;;;1031283;28;942;-42
2022/01/09 02:16:59;;;;;;;;;;;;;;;;;;1031556;28;1092;-42
2022/01/09 02:17:29;;;;;;;;;;;;;;;;;;1031400;28;902;-42
2022/01/09 02:18:01;;;;;;;;;;;;;;;;;;1031482;28;969;-42
2022/01/09 02:18:31;;;;;;;;;;;;;;;;;;1031459;28;870;-43
2022/01/09 02:19:02;;;;;;;;;;;;;;;;;;1031376;28;1183;-42
2022/01/09 02:19:33;;;;;;;;;;;;;;;;;;1031460;28;965;-42
2022/01/09 02:20:04;;;;;;;;;;;;;;;;;;1031507;28;862;-42
2022/01/09 02:20:36;;;;;;;;;;;;;;;;;;1031273;28;950;-42
2022/01/09 02:21:06;;;;;;;;;;;;;;;;;;1031563;28;1009;-42
2022/01/09 02:21:39;;;;;;;;;;;;;;;;;;1031471;28;839;-42
2022/01/09 02:22:11;;;;;;;;;;;;;;;;;;1031497;28;934;-42
2022/01/09 02:22:41;;;;;;;;;;;;;;;;;;1031460;28;973;-42
2022/01/09 02:23:13;;;;;;;;;;;;;;;;;;1031432;28;914;-42
2022/01/09 02:23:45;;;;;;;;;;;;;;;;;;1031443;28;950;-42
2022/01/09 02:24:17;;;;;;;;;;;;;;;;;;1031451;28;843;-42
2022/01/09 02:24:47;;;;;;;;;;;;;;;;;;1027757;28;1043;-42
2022/01/09 02:25:18;;;;;;;;;;;;;;;;;;1031245;28;910;-42
2022/01/09 02:25:48;;;;;;;;;;;;;;;;;;1030948;28;989;-42
2022/01/09 02:26:20;;;;;;;;;;;;;;;;;;1031263;28;894;-42
2022/01/09 02:26:51;;;;;;;;;;;;;;;;;;1035340;28;1906;-42
2022/01/09 02:27:21;;;;;;;;;;;;;;;;;;1035527;28;875;-42
2022/01/09 02:27:52;;;;;;;;;;;;;;;;;;1035593;28;929;-42
2022/01/09 02:28:23;;;;;;;;;;;;;;;;;;1035441;28;933;-42
2022/01/09 02:28:53;;;;;;;;;;;;;;;;;;1035110;28;1368;-42
2022/01/09 02:29:23;;;;;;;;;;;;;;;;;;1035336;28;873;-42
2022/01/09 02:29:53;;;;;;;;;;;;;;;;;;1035498;28;933;-42
2022/01/09 02:30:24;;;;;;;;;;;;;;;;;;1035314;28;973;-41
2022/01/09 02:30:55;;;;;;;;;;;;;;;;;;1035484;28;874;-42
2022/01/09 02:31:25;;;;;;;;;;;;;;;;;;1035468;28;1221;-42
2022/01/09 02:31:55;;;;;;;;;;;;;;;;;;1035633;28;885;-42
2022/01/09 02:32:25;;;;;;;;;;;;;;;;;;1035331;28;937;-42
2022/01/09 02:32:56;;;;;;;;;;;;;;;;;;1035590;28;976;-42
2022/01/09 02:33:26;;;;;;;;;;;;;;;;;;1035483;28;953;-42
2022/01/09 02:33:57;;;;;;;;;;;;;;;;;;1035562;28;929;-43
2022/01/09 02:34:27;;;;;;;;;;;;;;;;;;1035402;28;914;-42
2022/01/09 02:34:57;;;;;;;;;;;;;;;;;;1035376;28;1139;-42
2022/01/09 02:35:28;;;;;;;;;;;;;;;;;;1035567;28;949;-42
2022/01/09 02:35:58;;;;;;;;;;;;;;;;;;1035548;28;1012;-42
2022/01/09 02:36:29;;;;;;;;;;;;;;;;;;1035297;28;810;-42
2022/01/09 02:36:59;;;;;;;;;;;;;;;;;;1035630;28;858;-42
2022/01/09 02:37:29;;;;;;;;;;;;;;;;;;1034983;28;953;-42
2022/01/09 02:38:00;;;;;;;;;;;;;;;;;;1035232;28;945;-42
2022/01/09 02:38:30;;;;;;;;;;;;;;;;;;1035074;28;882;-42
2022/01/09 02:39:01;;;;;;;;;;;;;;;;;;1035130;28;928;-44
2022/01/09 02:39:31;;;;;;;;;;;;;;;;;;1035436;28;1067;-42
2022/01/09 02:40:02;;;;;;;;;;;;;;;;;;1035552;28;973;-42
2022/01/09 02:40:33;;;;;;;;;;;;;;;;;;1035260;28;771;-42
2022/01/09 02:41:04;;;;;;;;;;;;;;;;;;1035531;28;962;-42
2022/01/09 02:41:34;;;;;;;;;;;;;;;;;;1035444;28;890;-42
2022/01/09 02:42:16;;;;;;;;;;;;;;;;;;1035522;28;894;-42
2022/01/09 02:42:47;;;;;;;;;;;;;;;;;;1035237;28;964;-42
2022/01/09 02:43:17;;;;;;;;;;;;;;;;;;1035560;28;996;-42
2022/01/09 02:43:47;;;;;;;;;;;;;;;;;;1035443;28;972;-42
2022/01/09 02:44:18;;;;;;;;;;;;;;;;;;1033883;28;1086;-44
2022/01/09 02:44:48;;;;;;;;;;;;;;;;;;1031348;28;885;-43
2022/01/09 02:45:21;;;;;;;;;;;;;;;;;;1031476;28;902;-43
2022/01/09 02:46:06;;;;;;;;;;;;;;;;;;1031387;28;1013;-43
2022/01/09 02:46:58;;;;;;;;;;;;;;;;;;1031258;28;1979;-43
2022/01/09 02:47:32;;;;;;;;;;;;;;;;;;1031443;28;993;-43
2022/01/09 02:48:03;;;;;;;;;;;;;;;;;;1031427;28;863;-43
2022/01/09 02:48:37;;;;;;;;;;;;;;;;;;1031413;28;854;-43
2022/01/09 02:49:08;;;;;;;;;;;;;;;;;;1035410;28;934;-43
2022/01/09 02:49:39;;;;;;;;;;;;;;;;;;1035467;28;899;-43
2022/01/09 02:50:18;;;;;;;;;;;;;;;;;;1035211;28;918;-43
2022/01/09 02:51:04;;;;;;;;;;;;;;;;;;1035233;28;953;-43
2022/01/09 02:51:34;;;;;;;;;;;;;;;;;;1035496;28;906;-43
2022/01/09 02:52:11;;;;;;;;;;;;;;;;;;1035344;28;870;-43
2022/01/09 02:52:50;;;;;;;;;;;;;;;;;;1035523;28;945;-43
2022/01/09 02:53:21;;;;;;;;;;;;;;;;;;1035463;28;942;-43
2022/01/09 02:53:57;;;;;;;;;;;;;;;;;;1035446;28;950;-43
2022/01/09 02:55:17;;;;;;;;;;;;;;;;;;1035442;28;934;-43
2022/01/09 02:55:47;;;;;;;;;;;;;;;;;;1035390;28;822;-43
2022/01/09 02:56:18;;;;;;;;;;;;;;;;;;1035381;28;899;-43
2022/01/09 02:56:48;;;;;;;;;;;;;;;;;;1035506;28;921;-43
2022/01/09 02:57:18;;;;;;;;;;;;;;;;;;1035404;28;870;-43
2022/01/09 02:57:59;;;;;;;;;;;;;;;;;;1035439;28;922;-43
2022/01/09 02:58:30;;;;;;;;;;;;;;;;;;1035400;28;909;-43
2022/01/09 02:59:01;;;;;;;;;;;;;;;;;;1035440;28;910;-43
2022/01/09 02:59:31;;;;;;;;;;;;;;;;;;1035376;28;1045;-43
2022/01/09 03:00:03;;;;;;;;;;;;;;;;;;1035357;28;1337;-43
2022/01/09 03:00:36;;;;;;;;;;;;;;;;;;1035206;28;989;-43
2022/01/09 03:01:09;;;;;;;;;;;;;;;;;;1035418;28;1000;-43
2022/01/09 03:01:40;;;;;;;;;;;;;;;;;;1035389;28;882;-43
2022/01/09 03:02:10;;;;;;;;;;;;;;;;;;1035426;28;870;-43
2022/01/09 03:02:40;;;;;;;;;;;;;;;;;;1035361;28;823;-42
2022/01/09 03:03:11;;;;;;;;;;;;;;;;;;1035437;28;968;-43
2022/01/09 03:03:42;;;;;;;;;;;;;;;;;;1035429;28;887;-43
2022/01/09 03:04:12;;;;;;;;;;;;;;;;;;1035319;28;882;-43
2022/01/09 03:04:43;;;;;;;;;;;;;;;;;;1035564;28;1120;-43
2022/01/09 03:05:14;;;;;;;;;;;;;;;;;;1035438;28;1037;-43
2022/01/09 03:05:44;;;;;;;;;;;;;;;;;;1035391;28;958;-43
2022/01/09 03:06:15;;;;;;;;;;;;;;;;;;1035468;28;879;-43
2022/01/09 03:06:45;;;;;;;;;;;;;;;;;;1035248;28;1910;-43
2022/01/09 03:07:15;;;;;;;;;;;;;;;;;;1035588;28;895;-43
2022/01/09 03:07:46;;;;;;;;;;;;;;;;;;1035410;28;976;-43
2022/01/09 03:08:16;;;;;;;;;;;;;;;;;;1035467;28;874;-43
2022/01/09 03:08:46;;;;;;;;;;;;;;;;;;1035366;28;887;-43
2022/01/09 03:09:18;;;;;;;;;;;;;;;;;;1035404;28;806;-43
2022/01/09 03:09:48;;;;;;;;;;;;;;;;;;1035473;28;949;-43
2022/01/09 03:10:19;;;;;;;;;;;;;;;;;;1035298;28;937;-42
2022/01/09 03:10:49;;;;;;;;;;;;;;;;;;1035288;28;866;-43
2022/01/09 03:11:20;;;;;;;;;;;;;;;;;;1035566;28;838;-43
2022/01/09 03:11:50;;;;;;;;;;;;;;;;;;1035277;28;922;-43
2022/01/09 03:12:22;;;;;;;;;;;;;;;;;;1035350;28;890;-43
2022/01/09 03:12:53;;;;;;;;;;;;;;;;;;1035420;28;1644;-43
2022/01/09 03:13:23;;;;;;;;;;;;;;;;;;1035271;28;934;-43
2022/01/09 03:13:54;;;;;;;;;;;;;;;;;;1035587;28;957;-43
2022/01/09 03:14:24;;;;;;;;;;;;;;;;;;1035095;28;940;-43
2022/01/09 03:14:54;;;;;;;;;;;;;;;;;;1035445;28;929;-43
2022/01/09 03:15:25;;;;;;;;;;;;;;;;;;1035347;28;930;-43
2022/01/09 03:15:55;;;;;;;;;;;;;;;;;;1035463;28;894;-43
2022/01/09 03:16:26;;;;;;;;;;;;;;;;;;1035291;28;906;-43
2022/01/09 03:16:56;;;;;;;;;;;;;;;;;;1035559;28;827;-43
2022/01/09 03:17:26;;;;;;;;;;;;;;;;;;1035289;28;882;-43
2022/01/09 03:17:57;;;;;;;;;;;;;;;;;;1035547;28;961;-43
2022/01/09 03:18:27;;;;;;;;;;;;;;;;;;1035333;28;981;-43
2022/01/09 03:18:57;;;;;;;;;;;;;;;;;;1035498;28;878;-43
2022/01/09 03:19:28;;;;;;;;;;;;;;;;;;1035506;28;888;-43
2022/01/09 03:19:58;;;;;;;;;;;;;;;;;;1035337;28;881;-43
2022/01/09 03:20:29;;;;;;;;;;;;;;;;;;1035245;28;874;-43
2022/01/09 03:20:59;;;;;;;;;;;;;;;;;;1035404;28;886;-43
2022/01/09 03:21:30;;;;;;;;;;;;;;;;;;1035432;28;783;-43
2022/01/09 03:22:00;;;;;;;;;;;;;;;;;;1035485;28;862;-43
2022/01/09 03:22:30;;;;;;;;;;;;;;;;;;1035269;28;937;-43
2022/01/09 03:23:00;;;;;;;;;;;;;;;;;;1035413;28;949;-43
2022/01/09 03:23:31;;;;;;;;;;;;;;;;;;1035383;28;918;-43
2022/01/09 03:24:01;;;;;;;;;;;;;;;;;;1035409;28;830;-43
2022/01/09 03:24:32;;;;;;;;;;;;;;;;;;1035389;28;925;-43
2022/01/09 03:25:03;;;;;;;;;;;;;;;;;;1032263;28;1130;-43
2022/01/09 03:25:33;;;;;;;;;;;;;;;;;;1031416;28;985;-43
2022/01/09 03:26:03;;;;;;;;;;;;;;;;;;1031202;28;1033;-43
2022/01/09 03:26:34;;;;;;;;;;;;;;;;;;1031270;28;1918;-43
2022/01/09 03:27:04;;;;;;;;;;;;;;;;;;1031287;28;954;-43
2022/01/09 03:27:36;;;;;;;;;;;;;;;;;;1031412;28;1088;-43
2022/01/09 03:28:06;;;;;;;;;;;;;;;;;;1031288;28;929;-43
2022/01/09 03:28:37;;;;;;;;;;;;;;;;;;1031419;28;866;-43
2022/01/09 03:29:07;;;;;;;;;;;;;;;;;;1031137;28;919;-43
2022/01/09 03:29:38;;;;;;;;;;;;;;;;;;1031479;28;882;-43
2022/01/09 03:30:09;;;;;;;;;;;;;;;;;;1031313;28;799;-43
2022/01/09 03:30:39;;;;;;;;;;;;;;;;;;1031290;28;1342;-43
2022/01/09 03:31:10;;;;;;;;;;;;;;;;;;1031092;28;1218;-43
2022/01/09 03:31:40;;;;;;;;;;;;;;;;;;1031342;28;942;-43
2022/01/09 03:32:10;;;;;;;;;;;;;;;;;;1031335;28;907;-43
2022/01/09 03:32:41;;;;;;;;;;;;;;;;;;1031404;28;945;-42
2022/01/09 03:33:11;;;;;;;;;;;;;;;;;;1031166;28;1253;-43
2022/01/09 03:33:42;;;;;;;;;;;;;;;;;;1031506;28;949;-43
2022/01/09 03:34:12;;;;;;;;;;;;;;;;;;1031202;28;831;-43
2022/01/09 03:34:42;;;;;;;;;;;;;;;;;;1031363;28;850;-43
2022/01/09 03:35:14;;;;;;;;;;;;;;;;;;1031241;28;887;-43
2022/01/09 03:35:44;;;;;;;;;;;;;;;;;;1031187;28;941;-44
2022/01/09 03:36:15;;;;;;;;;;;;;;;;;;1031305;28;953;-43
2022/01/09 03:36:45;;;;;;;;;;;;;;;;;;1031250;28;1206;-43
2022/01/09 03:37:15;;;;;;;;;;;;;;;;;;1031241;28;968;-43
2022/01/09 03:37:47;;;;;;;;;;;;;;;;;;1031381;28;878;-43
2022/01/09 03:38:17;;;;;;;;;;;;;;;;;;1031291;28;843;-43
2022/01/09 03:38:48;;;;;;;;;;;;;;;;;;1031196;28;930;-43
2022/01/09 03:39:18;;;;;;;;;;;;;;;;;;1031354;28;839;-43
2022/01/09 03:39:48;;;;;;;;;;;;;;;;;;1031251;28;787;-43
2022/01/09 03:40:20;;;;;;;;;;;;;;;;;;1031489;28;606;-43
2022/01/09 03:40:51;;;;;;;;;;;;;;;;;;1032026;28;795;-43
2022/01/09 03:41:21;;;;;;;;;;;;;;;;;;1031990;28;1017;-43
2022/01/09 03:41:54;;;;;;;;;;;;;;;;;;1032133;28;870;-43
2022/01/09 03:42:25;;;;;;;;;;;;;;;;;;1031852;28;776;-43